Time;durP1;ratioP1;P1;durP2;ratioP2;P2;SDS_P1;SDS_P2;PMS_P1;PMS_P2;Temp;Humidity;BMP_temperature;BMP_pressure;BME280_temperature;BME280_humidity;BME280_pressure;Samples;Min_cycle;Max_cycle;Signal;HPM_P1;HPM_P2
2024/01/08 00:00:47;;;;;;;7.95;2.88;;;-3274.10;97.80;;;;;;4995975;28;20836;-69
2024/01/08 00:03:13;;;;;;;8.30;2.88;;;-3274.10;97.80;;;;;;4996364;28;20061;-69
2024/01/08 00:05:39;;;;;;;6.00;2.92;;;-3274.10;97.90;;;;;;4998390;28;20038;-68
2024/01/08 00:08:07;;;;;;;8.43;3.08;;;-3274.20;98.00;;;;;;5002024;28;20382;-68
2024/01/08 00:10:32;;;;;;;5.55;2.80;;;-3274.20;97.90;;;;;;4999373;28;20407;-68
2024/01/08 00:12:58;;;;;;;6.53;2.72;;;-3274.20;98.00;;;;;;4995308;28;20124;-70
2024/01/08 00:15:23;;;;;;;5.18;2.25;;;-3274.20;97.90;;;;;;5003586;28;20056;-68
2024/01/08 00:17:49;;;;;;;3.88;2.25;;;-3274.20;98.00;;;;;;5002268;28;20045;-68
2024/01/08 00:20:15;;;;;;;5.50;2.45;;;-3274.20;98.00;;;;;;5003820;28;20451;-68
2024/01/08 00:22:41;;;;;;;7.43;2.80;;;-3274.20;98.00;;;;;;5000261;28;20037;-68
2024/01/08 00:25:07;;;;;;;5.97;2.85;;;-3274.20;98.10;;;;;;5001693;28;20402;-67
2024/01/08 00:27:33;;;;;;;6.18;2.63;;;-3274.20;98.10;;;;;;5001360;28;20113;-68
2024/01/08 00:29:58;;;;;;;6.60;3.03;;;-3274.30;98.10;;;;;;4990405;28;20058;-68
2024/01/08 00:32:24;;;;;;;4.72;2.65;;;-3274.20;98.10;;;;;;4994031;28;20125;-68
2024/01/08 00:34:49;;;;;;;6.32;2.63;;;-3274.30;98.10;;;;;;5003979;28;20037;-68
2024/01/08 00:37:15;;;;;;;6.70;2.53;;;-3274.30;98.00;;;;;;5001886;28;20342;-68
2024/01/08 00:39:40;;;;;;;6.88;2.60;;;-3274.30;98.10;;;;;;4978827;28;20468;-69
2024/01/08 00:42:06;;;;;;;5.68;2.35;;;-3274.30;98.10;;;;;;5008387;28;20142;-68
2024/01/08 00:44:31;;;;;;;7.85;2.45;;;-3274.30;98.20;;;;;;4997332;28;20057;-69
2024/01/08 00:46:57;;;;;;;6.07;2.25;;;-3274.30;98.10;;;;;;5002332;28;20056;-69
2024/01/08 00:49:22;;;;;;;5.40;2.15;;;-3274.30;98.10;;;;;;4999763;28;20485;-68
2024/01/08 00:51:48;;;;;;;5.57;2.47;;;-3274.30;98.10;;;;;;5000845;28;20081;-68
2024/01/08 00:54:13;;;;;;;4.53;2.30;;;-3274.30;98.10;;;;;;4975576;28;20035;-68
2024/01/08 00:56:39;;;;;;;4.85;2.88;;;-3274.30;98.10;;;;;;5000621;28;20884;-68
2024/01/08 00:59:04;;;;;;;7.13;2.53;;;-3274.30;98.10;;;;;;5001141;28;20042;-68
2024/01/08 01:01:29;;;;;;;7.38;2.70;;;-3274.30;98.20;;;;;;5000480;28;20366;-69
2024/01/08 01:03:55;;;;;;;5.88;2.80;;;-3274.30;98.00;;;;;;5000002;28;20446;-68
2024/01/08 01:06:21;;;;;;;3.90;2.47;;;-3274.30;97.90;;;;;;4999385;28;20129;-68
2024/01/08 01:08:47;;;;;;;3.72;1.88;;;-3274.30;98.00;;;;;;4997617;28;20470;-69
2024/01/08 01:11:14;;;;;;;3.13;1.60;;;-3274.30;97.90;;;;;;4995158;28;20038;-68
2024/01/08 01:13:40;;;;;;;3.88;1.55;;;-3274.40;97.90;;;;;;4993334;28;20802;-68
2024/01/08 01:16:06;;;;;;;5.32;1.92;;;-3274.30;97.70;;;;;;4995351;28;20176;-68
2024/01/08 01:18:31;;;;;;;3.72;1.95;;;-3274.30;97.60;;;;;;4995443;28;20027;-68
2024/01/08 01:20:57;;;;;;;3.83;1.80;;;-3274.40;97.70;;;;;;5000474;28;20053;-68
2024/01/08 01:23:23;;;;;;;4.55;2.03;;;-3274.40;97.60;;;;;;4998697;28;20030;-68
2024/01/08 01:25:48;;;;;;;4.45;1.60;;;-3274.30;97.40;;;;;;4998564;28;20033;-68
2024/01/08 01:28:14;;;;;;;4.75;1.98;;;-3274.30;97.30;;;;;;4995925;28;20148;-68
2024/01/08 01:30:39;;;;;;;3.80;1.90;;;-3274.30;97.40;;;;;;4989857;28;20089;-68
2024/01/08 01:33:05;;;;;;;7.05;2.08;;;-3274.30;97.30;;;;;;4994861;28;20034;-68
2024/01/08 01:35:30;;;;;;;3.42;1.75;;;-3274.30;97.30;;;;;;4998030;28;20077;-69
2024/01/08 01:37:58;;;;;;;3.72;1.65;;;-3274.20;97.00;;;;;;4993593;28;20053;-68
2024/01/08 01:40:23;;;;;;;4.22;1.80;;;-3274.30;97.10;;;;;;5001797;28;20078;-68
2024/01/08 01:42:54;;;;;;;5.10;1.60;;;-3274.30;96.90;;;;;;5001981;28;20025;-68
2024/01/08 01:45:22;;;;;;;6.18;1.60;;;-3274.20;96.80;;;;;;4993194;28;20133;-69
2024/01/08 01:47:54;;;;;;;3.40;1.30;;;-3274.20;96.70;;;;;;4997142;28;20034;-68
2024/01/08 01:50:21;;;;;;;2.22;1.48;;;-3274.20;96.60;;;;;;4999108;28;20030;-69
2024/01/08 01:52:47;;;;;;;2.28;1.40;;;-3274.20;96.50;;;;;;4993763;28;20058;-70
2024/01/08 01:55:13;;;;;;;4.88;2.03;;;-3274.30;96.80;;;;;;4992159;28;20084;-68
2024/01/08 01:57:40;;;;;;;4.20;1.67;;;-3274.20;96.70;;;;;;4995357;28;20129;-68
2024/01/08 02:00:06;;;;;;;2.88;1.65;;;-3274.20;96.80;;;;;;4992030;28;20121;-69
2024/01/08 02:02:32;;;;;;;3.13;1.52;;;-3274.20;96.70;;;;;;4996125;28;20049;-68
2024/01/08 02:04:58;;;;;;;3.50;1.60;;;-3274.20;96.80;;;;;;4994734;28;20454;-68
2024/01/08 02:07:23;;;;;;;3.35;1.65;;;-3274.20;96.80;;;;;;5001510;28;20431;-68
2024/01/08 02:09:49;;;;;;;3.70;1.88;;;-3274.20;96.80;;;;;;4996006;28;20184;-68
2024/01/08 02:12:17;;;;;;;2.70;1.65;;;-3274.20;96.80;;;;;;4995638;28;20031;-68
2024/01/08 02:14:44;;;;;;;3.40;1.48;;;-3274.20;96.90;;;;;;4995092;28;20034;-69
2024/01/08 02:17:09;;;;;;;2.80;1.52;;;-3274.20;96.80;;;;;;4994868;28;20036;-69
2024/01/08 02:19:35;;;;;;;4.75;2.00;;;-3274.20;96.90;;;;;;4997431;28;20517;-68
2024/01/08 02:22:00;;;;;;;3.55;1.60;;;-3274.20;97.10;;;;;;4996520;28;20038;-68
2024/01/08 02:24:28;;;;;;;3.63;1.70;;;-3274.20;97.10;;;;;;4991384;28;20371;-68
2024/01/08 02:26:54;;;;;;;3.20;1.42;;;-3274.20;97.00;;;;;;5002300;28;20042;-68
2024/01/08 02:29:21;;;;;;;1.35;0.90;;;-3274.20;97.00;;;;;;4993433;28;20113;-68
2024/01/08 02:31:47;;;;;;;3.13;1.60;;;-3274.20;96.90;;;;;;4998160;28;20026;-69
2024/01/08 02:34:13;;;;;;;3.75;1.60;;;-3274.20;97.10;;;;;;4998676;28;20038;-68
2024/01/08 02:36:38;;;;;;;3.17;1.52;;;-3274.30;97.20;;;;;;4995356;28;20069;-69
2024/01/08 02:39:05;;;;;;;4.75;1.88;;;-3274.20;97.20;;;;;;5004710;28;20446;-68
2024/01/08 02:41:30;;;;;;;4.20;1.90;;;-3274.30;97.20;;;;;;4995870;28;20405;-69
2024/01/08 02:43:56;;;;;;;4.85;1.52;;;-3274.30;97.20;;;;;;4991124;28;20108;-68
2024/01/08 02:46:21;;;;;;;2.35;1.15;;;-3274.30;97.30;;;;;;4996436;28;21581;-69
2024/01/08 02:48:47;;;;;;;1.70;1.30;;;-3274.30;97.10;;;;;;4994012;28;20137;-69
2024/01/08 02:51:14;;;;;;;4.18;1.85;;;-3274.30;97.30;;;;;;4996180;28;20136;-68
2024/01/08 02:53:39;;;;;;;2.88;1.42;;;-3274.30;97.20;;;;;;4989389;28;20038;-68
2024/01/08 02:56:05;;;;;;;2.80;1.20;;;-3274.30;97.20;;;;;;4999904;28;20041;-68
2024/01/08 02:58:31;;;;;;;4.22;1.63;;;-3274.30;97.30;;;;;;4996215;28;20388;-68
2024/01/08 03:00:59;;;;;;;2.67;1.27;;;-3274.30;97.30;;;;;;5001111;28;20137;-68
2024/01/08 03:03:25;;;;;;;3.30;1.60;;;-3274.30;97.30;;;;;;4996472;28;20022;-69
2024/01/08 03:05:50;;;;;;;4.05;1.50;;;-3274.30;97.30;;;;;;4994929;28;20125;-68
2024/01/08 03:08:16;;;;;;;3.78;1.80;;;-3274.30;97.40;;;;;;5003827;28;20041;-69
2024/01/08 03:10:41;;;;;;;2.25;1.42;;;-3274.40;97.50;;;;;;4998658;28;20090;-68
2024/01/08 03:13:07;;;;;;;2.60;1.30;;;-3274.30;97.40;;;;;;4998482;28;20479;-68
2024/01/08 03:15:32;;;;;;;4.38;1.42;;;-3274.30;97.40;;;;;;5003983;28;20054;-68
2024/01/08 03:17:57;;;;;;;3.22;1.23;;;-3274.30;97.40;;;;;;5006032;28;20057;-68
2024/01/08 03:20:23;;;;;;;3.88;2.05;;;-3274.40;97.40;;;;;;5000727;28;20134;-68
2024/01/08 03:22:50;;;;;;;2.70;1.40;;;-3274.40;97.50;;;;;;5005932;28;20038;-68
2024/01/08 03:25:15;;;;;;;2.75;1.20;;;-3274.40;97.40;;;;;;4991495;28;20394;-68
2024/01/08 03:27:41;;;;;;;2.97;1.35;;;-3274.40;97.40;;;;;;5004731;28;20045;-68
2024/01/08 03:30:06;;;;;;;3.83;1.38;;;-3274.40;97.50;;;;;;4996120;28;20069;-69
2024/01/08 03:32:32;;;;;;;4.95;1.27;;;-3274.40;97.40;;;;;;5005678;28;20034;-69
2024/01/08 03:34:57;;;;;;;3.35;1.63;;;-3274.30;97.40;;;;;;5001276;28;20049;-69
2024/01/08 03:37:23;;;;;;;3.13;1.33;;;-3274.40;97.60;;;;;;5007256;28;20084;-68
2024/01/08 03:39:48;;;;;;;2.13;1.10;;;-3274.50;97.50;;;;;;5000468;28;20409;-69
2024/01/08 03:42:14;;;;;;;2.58;1.40;;;-3274.40;97.40;;;;;;4996560;28;20110;-69
2024/01/08 03:44:39;;;;;;;2.53;1.42;;;-3274.40;97.40;;;;;;4996937;28;20116;-70
2024/01/08 03:47:05;;;;;;;5.32;1.88;;;-3274.40;97.40;;;;;;5000004;28;20033;-69
2024/01/08 03:49:30;;;;;;;3.45;1.52;;;-3274.40;97.40;;;;;;4999763;28;20026;-69
2024/01/08 03:51:55;;;;;;;3.85;1.90;;;-3274.40;97.40;;;;;;4997604;28;20112;-68
2024/01/08 03:54:21;;;;;;;1.45;1.00;;;-3274.40;97.40;;;;;;4997941;28;20169;-69
2024/01/08 03:56:46;;;;;;;3.72;1.42;;;-3274.40;97.40;;;;;;4998886;28;20034;-68
2024/01/08 03:59:13;;;;;;;2.47;1.10;;;-3274.40;97.30;;;;;;5003067;28;20045;-69
2024/01/08 04:01:44;;;;;;;2.25;1.23;;;-3274.50;97.30;;;;;;4982688;28;20030;-69
2024/01/08 04:04:09;;;;;;;2.28;1.45;;;-3274.50;97.40;;;;;;4995999;28;20065;-68
2024/01/08 04:06:35;;;;;;;3.42;1.55;;;-3274.40;97.30;;;;;;5000523;28;20074;-69
2024/01/08 04:09:01;;;;;;;2.35;1.58;;;-3274.40;97.40;;;;;;4999918;28;20034;-69
2024/01/08 04:11:26;;;;;;;1.48;1.00;;;-3274.50;97.40;;;;;;4995768;28;20041;-69
2024/01/08 04:13:52;;;;;;;3.40;1.27;;;-3274.50;97.40;;;;;;4996547;28;20078;-69
2024/01/08 04:16:17;;;;;;;2.28;1.50;;;-3274.40;97.30;;;;;;5003188;28;20054;-69
2024/01/08 04:18:43;;;;;;;2.63;1.00;;;-3274.40;97.20;;;;;;4997704;28;20031;-69
2024/01/08 04:21:08;;;;;;;1.75;1.05;;;-3274.40;97.30;;;;;;5005459;28;20048;-68
2024/01/08 04:23:34;;;;;;;1.75;1.23;;;-3274.50;97.20;;;;;;5003454;28;20458;-68
2024/01/08 04:25:59;;;;;;;2.80;1.10;;;-3274.50;97.10;;;;;;4999835;28;20169;-67
2024/01/08 04:28:25;;;;;;;2.85;1.30;;;-3274.50;97.00;;;;;;5000239;28;20076;-69
2024/01/08 04:30:50;;;;;;;1.75;1.00;;;-3274.50;96.90;;;;;;5005356;28;20053;-68
2024/01/08 04:33:16;;;;;;;4.80;1.42;;;-3274.50;96.80;;;;;;5002798;28;20367;-68
2024/01/08 04:35:41;;;;;;;3.28;1.10;;;-3274.50;96.90;;;;;;5000091;28;20038;-68
2024/01/08 04:38:07;;;;;;;2.08;1.20;;;-3274.50;96.90;;;;;;4993844;28;20042;-69
2024/01/08 04:40:32;;;;;;;3.22;1.27;;;-3274.60;96.80;;;;;;4999708;28;20472;-68
2024/01/08 04:42:57;;;;;;;3.60;1.48;;;-3274.50;96.70;;;;;;5002019;28;20044;-69
2024/01/08 04:45:23;;;;;;;2.78;1.05;;;-3274.60;96.80;;;;;;5000099;28;20458;-67
2024/01/08 04:47:48;;;;;;;3.10;1.20;;;-3274.50;96.80;;;;;;5005341;28;20038;-68
2024/01/08 04:50:14;;;;;;;1.90;1.25;;;-3274.60;96.70;;;;;;5003810;28;20042;-68
2024/01/08 04:52:39;;;;;;;1.83;1.02;;;-3274.60;96.60;;;;;;4997454;28;20421;-68
2024/01/08 04:55:05;;;;;;;3.72;1.50;;;-3274.60;96.50;;;;;;4998893;28;20038;-68
2024/01/08 04:57:31;;;;;;;2.40;1.15;;;-3274.60;96.30;;;;;;4998665;28;20298;-69
2024/01/08 04:59:56;;;;;;;1.73;1.08;;;-3274.60;96.20;;;;;;4983230;28;20041;-69
2024/01/08 05:02:21;;;;;;;3.15;1.17;;;-3274.60;96.00;;;;;;5001591;28;20459;-68
2024/01/08 05:04:47;;;;;;;2.47;1.20;;;-3274.60;95.90;;;;;;5005672;28;20137;-68
2024/01/08 05:07:12;;;;;;;2.42;1.10;;;-3274.60;95.70;;;;;;4995398;28;20096;-68
2024/01/08 05:09:38;;;;;;;2.75;1.13;;;-3274.60;95.60;;;;;;4995976;28;20060;-68
2024/01/08 05:12:04;;;;;;;1.95;1.05;;;-3274.60;95.50;;;;;;4996834;28;20034;-68
2024/01/08 05:14:29;;;;;;;1.58;1.17;;;-3274.60;95.40;;;;;;5000951;28;20032;-68
2024/01/08 05:16:55;;;;;;;2.42;1.33;;;-3274.60;95.30;;;;;;4997744;28;20035;-68
2024/01/08 05:19:20;;;;;;;3.55;1.17;;;-3274.60;95.00;;;;;;4984393;28;20473;-68
2024/01/08 05:21:46;;;;;;;2.33;1.20;;;-3274.60;94.60;;;;;;4999160;28;20109;-68
2024/01/08 05:24:11;;;;;;;2.83;0.95;;;-3274.60;94.50;;;;;;5000429;28;20107;-68
2024/01/08 05:26:37;;;;;;;2.25;1.13;;;-3274.60;94.60;;;;;;5000740;28;20050;-69
2024/01/08 05:29:02;;;;;;;2.13;1.20;;;-3274.60;94.70;;;;;;4994665;28;20022;-68
2024/01/08 05:31:28;;;;;;;2.45;1.10;;;-3274.60;95.00;;;;;;4995067;28;20383;-68
2024/01/08 05:33:53;;;;;;;1.45;1.20;;;-3274.60;95.20;;;;;;4999857;28;20092;-67
2024/01/08 05:36:19;;;;;;;3.17;1.20;;;-3274.60;95.20;;;;;;4993815;28;20034;-68
2024/01/08 05:38:44;;;;;;;3.75;1.30;;;-3274.60;95.30;;;;;;4996560;28;20034;-68
2024/01/08 05:41:10;;;;;;;1.50;1.00;;;-3274.60;95.20;;;;;;4994032;28;20054;-67
2024/01/08 05:43:38;;;;;;;1.90;0.98;;;-3274.60;95.10;;;;;;4994379;28;20046;-67
2024/01/08 05:46:05;;;;;;;1.05;0.85;;;-3274.70;95.20;;;;;;4990191;28;20375;-68
2024/01/08 05:48:37;;;;;;;1.80;1.20;;;-3274.60;95.10;;;;;;4994245;28;20390;-68
2024/01/08 05:51:07;;;;;;;1.95;1.08;;;-3274.60;95.20;;;;;;4999468;28;20112;-68
2024/01/08 05:53:32;;;;;;;1.85;0.90;;;-3274.60;95.30;;;;;;4980737;28;20109;-67
2024/01/08 05:55:58;;;;;;;2.55;1.10;;;-3274.60;95.30;;;;;;4996463;28;20134;-68
2024/01/08 05:58:24;;;;;;;1.83;1.00;;;-3274.60;95.20;;;;;;4997453;28;20415;-67
2024/01/08 06:00:50;;;;;;;1.35;0.95;;;-3274.60;95.00;;;;;;4993746;28;20404;-67
2024/01/08 06:03:15;;;;;;;1.85;0.90;;;-3274.60;95.00;;;;;;4995974;28;20785;-68
2024/01/08 06:05:40;;;;;;;1.40;1.02;;;-3274.60;95.00;;;;;;4991222;28;20053;-68
2024/01/08 06:08:08;;;;;;;1.73;1.10;;;-3274.60;94.80;;;;;;4968842;28;20042;-67
2024/01/08 06:10:33;;;;;;;1.75;1.10;;;-3274.60;94.90;;;;;;4988454;28;20046;-68
2024/01/08 06:12:59;;;;;;;2.53;1.38;;;-3274.60;94.90;;;;;;4997593;28;20092;-69
2024/01/08 06:15:24;;;;;;;2.42;1.52;;;-3274.60;94.90;;;;;;4996797;28;20140;-68
2024/01/08 06:17:50;;;;;;;2.70;1.00;;;-3274.60;94.80;;;;;;4999157;28;20084;-67
2024/01/08 06:20:15;;;;;;;0.90;0.77;;;-3274.60;94.40;;;;;;5002357;28;20057;-67
2024/01/08 06:22:41;;;;;;;2.03;1.00;;;-3274.60;94.50;;;;;;5001608;28;20136;-68
2024/01/08 06:25:07;;;;;;;2.63;1.20;;;-3274.60;94.20;;;;;;5000093;28;20072;-68
2024/01/08 06:27:32;;;;;;;2.40;1.30;;;-3274.70;94.30;;;;;;4995086;28;20073;-69
2024/01/08 06:29:58;;;;;;;1.77;1.10;;;-3274.70;94.60;;;;;;4996395;28;20044;-67
2024/01/08 06:32:24;;;;;;;1.15;0.80;;;-3274.70;94.60;;;;;;4997303;28;20088;-67
2024/01/08 06:34:50;;;;;;;3.08;1.25;;;-3274.70;94.60;;;;;;4984238;28;20029;-68
2024/01/08 06:37:16;;;;;;;2.33;1.02;;;-3274.60;94.50;;;;;;4996713;28;20041;-68
2024/01/08 06:39:42;;;;;;;2.95;1.30;;;-3274.70;94.40;;;;;;5000855;28;20025;-67
2024/01/08 06:42:08;;;;;;;4.00;1.20;;;-3274.60;94.50;;;;;;4993054;28;20029;-67
2024/01/08 06:44:33;;;;;;;1.67;1.13;;;-3274.60;94.40;;;;;;4991774;28;20053;-67
2024/01/08 06:46:59;;;;;;;3.25;1.17;;;-3274.60;94.40;;;;;;4994937;28;20039;-67
2024/01/08 06:49:24;;;;;;;3.85;1.40;;;-3274.60;94.40;;;;;;5000970;28;20029;-67
2024/01/08 06:51:50;;;;;;;2.50;1.10;;;-3274.60;94.40;;;;;;4992361;28;20046;-66
2024/01/08 06:54:15;;;;;;;2.08;1.20;;;-3274.60;94.60;;;;;;4999694;28;20034;-67
2024/01/08 06:56:41;;;;;;;2.95;1.25;;;-3274.60;94.10;;;;;;4975794;28;20221;-67
2024/01/08 06:59:06;;;;;;;2.70;1.27;;;-3274.70;94.00;;;;;;4996986;28;20469;-68
2024/01/08 07:01:32;;;;;;;4.88;1.60;;;-3274.70;94.10;;;;;;4980252;28;20066;-67
2024/01/08 07:03:57;;;;;;;2.72;1.45;;;-3274.70;93.90;;;;;;4977371;28;20132;-68
2024/01/08 07:06:23;;;;;;;2.35;1.27;;;-3274.70;93.70;;;;;;4997195;28;20053;-68
2024/01/08 07:08:49;;;;;;;3.80;1.20;;;-3274.70;93.70;;;;;;4992912;28;20030;-67
2024/01/08 07:11:22;;;;;;;2.90;1.15;;;-3274.70;93.40;;;;;;4994714;28;20029;-67
2024/01/08 07:13:49;;;;;;;2.85;1.20;;;-3274.60;93.80;;;;;;4986568;28;20502;-68
2024/01/08 07:16:15;;;;;;;2.50;1.20;;;-3274.60;93.90;;;;;;4997523;28;20034;-67
2024/01/08 07:18:41;;;;;;;3.28;1.00;;;-3274.70;93.90;;;;;;4995394;28;20128;-67
2024/01/08 07:21:07;;;;;;;1.20;0.98;;;-3274.60;93.90;;;;;;4998944;28;20038;-67
2024/01/08 07:23:35;;;;;;;1.77;0.98;;;-3274.60;93.90;;;;;;5002495;28;20030;-67
2024/01/08 07:26:00;;;;;;;2.15;1.00;;;-3274.70;93.80;;;;;;4989729;28;20108;-67
2024/01/08 07:28:26;;;;;;;2.92;1.23;;;-3274.70;93.50;;;;;;4996325;28;20484;-68
2024/01/08 07:30:52;;;;;;;2.25;1.05;;;-3274.70;93.70;;;;;;4992469;28;20113;-67
2024/01/08 07:33:17;;;;;;;1.95;0.98;;;-3274.60;93.90;;;;;;4994738;28;20041;-67
2024/01/08 07:35:43;;;;;;;3.42;1.20;;;-3274.60;93.90;;;;;;4995274;28;20040;-68
2024/01/08 07:38:08;;;;;;;3.13;1.40;;;-3274.60;94.00;;;;;;4993301;28;20049;-67
2024/01/08 07:40:34;;;;;;;1.60;1.10;;;-3274.60;94.20;;;;;;4997261;28;20035;-67
2024/01/08 07:43:00;;;;;;;1.58;0.93;;;-3274.50;94.20;;;;;;4994293;28;20022;-68
2024/01/08 07:45:26;;;;;;;3.03;1.38;;;-3274.50;93.90;;;;;;4994805;28;20058;-68
2024/01/08 07:47:54;;;;;;;4.80;1.60;;;-3274.40;94.10;;;;;;4999600;28;20041;-67
2024/01/08 07:50:20;;;;;;;4.95;1.60;;;-3274.30;94.40;;;;;;4997011;28;20101;-66
2024/01/08 07:52:46;;;;;;;3.50;1.70;;;-3274.20;94.40;;;;;;5005173;28;20026;-67
2024/01/08 07:55:11;;;;;;;4.63;1.65;;;-3274.10;94.50;;;;;;4979846;28;20387;-67
2024/01/08 07:57:37;;;;;;;4.07;1.35;;;-3274.10;94.50;;;;;;5004008;28;20046;-69
2024/01/08 08:00:06;;;;;;;3.67;1.50;;;-3274.00;94.70;;;;;;4989798;28;20042;-66
2024/01/08 08:02:32;;;;;;;3.88;1.75;;;-3273.90;94.70;;;;;;5000646;28;20061;-67
2024/01/08 08:04:58;;;;;;;4.32;1.83;;;-3273.90;94.90;;;;;;5005260;28;20084;-67
2024/01/08 08:07:23;;;;;;;4.03;2.08;;;-3273.80;95.00;;;;;;5006482;28;20126;-68
2024/01/08 08:09:49;;;;;;;6.13;2.33;;;-3273.70;95.20;;;;;;5001405;28;20030;-65
2024/01/08 08:12:14;;;;;;;3.92;1.75;;;-3273.70;95.20;;;;;;4994792;28;20038;-67
2024/01/08 08:14:40;;;;;;;4.95;2.13;;;-3273.70;95.40;;;;;;4990438;28;20398;-69
2024/01/08 08:17:05;;;;;;;6.30;2.05;;;-3273.60;95.40;;;;;;5002409;28;20084;-69
2024/01/08 08:19:31;;;;;;;3.58;1.75;;;-3273.70;95.60;;;;;;5000795;28;20042;-68
2024/01/08 08:21:56;;;;;;;4.50;2.03;;;-3273.70;95.70;;;;;;5004721;28;20305;-67
2024/01/08 08:24:23;;;;;;;5.72;2.40;;;-3273.70;95.60;;;;;;4999933;28;20042;-67
2024/01/08 08:26:48;;;;;;;4.45;2.08;;;-3273.70;95.70;;;;;;5006969;28;20037;-66
2024/01/08 08:29:14;;;;;;;4.40;2.05;;;-3273.70;95.70;;;;;;4999846;28;20031;-67
2024/01/08 08:31:39;;;;;;;4.63;2.03;;;-3273.80;95.50;;;;;;4994870;28;20056;-67
2024/01/08 08:34:05;;;;;;;5.90;2.25;;;-3273.80;95.40;;;;;;4994433;28;20026;-67
2024/01/08 08:36:31;;;;;;;5.53;2.25;;;-3273.90;95.30;;;;;;4997439;28;20122;-67
2024/01/08 08:38:56;;;;;;;5.93;2.30;;;-3274.00;95.30;;;;;;5004116;28;20045;-67
2024/01/08 08:41:22;;;;;;;4.22;2.25;;;-3274.10;95.30;;;;;;4986911;28;20033;-67
2024/01/08 08:43:48;;;;;;;4.60;1.90;;;-3274.20;95.10;;;;;;4994325;28;20044;-68
2024/01/08 08:46:15;;;;;;;7.22;2.53;;;-3274.30;95.00;;;;;;5000750;28;20056;-67
2024/01/08 08:48:40;;;;;;;6.43;2.65;;;-3274.30;94.80;;;;;;5001218;28;20446;-67
2024/01/08 08:51:06;;;;;;;6.40;2.38;;;-3274.40;94.60;;;;;;4991263;28;20065;-68
2024/01/08 08:53:32;;;;;;;5.85;2.97;;;-3274.40;94.50;;;;;;4993884;28;20070;-67
2024/01/08 08:55:57;;;;;;;6.40;2.22;;;-3274.50;94.50;;;;;;4989959;28;20129;-67
2024/01/08 08:58:23;;;;;;;5.63;2.35;;;-3274.50;94.50;;;;;;4998569;28;20065;-67
2024/01/08 09:00:49;;;;;;;7.03;3.08;;;-3274.50;94.50;;;;;;5000842;28;20474;-67
2024/01/08 09:03:15;;;;;;;4.70;2.40;;;-3274.60;94.30;;;;;;5002368;28;20382;-67
2024/01/08 09:05:41;;;;;;;6.07;2.72;;;-3274.60;94.00;;;;;;4999718;28;20060;-67
2024/01/08 09:08:06;;;;;;;6.53;3.17;;;-3274.60;94.00;;;;;;4996552;28;20065;-67
2024/01/08 09:10:32;;;;;;;7.00;2.63;;;-3274.70;94.00;;;;;;4994873;28;20034;-68
2024/01/08 09:12:57;;;;;;;6.43;2.60;;;-3274.70;93.80;;;;;;4992834;28;20118;-69
2024/01/08 09:15:23;;;;;;;6.25;2.78;;;-3274.80;93.90;;;;;;4997358;28;20423;-68
2024/01/08 09:17:49;;;;;;;6.90;2.65;;;-3274.80;94.10;;;;;;4994175;28;20038;-66
2024/01/08 09:20:15;;;;;;;5.13;2.38;;;-3274.90;94.00;;;;;;4999857;28;20178;-66
2024/01/08 09:22:40;;;;;;;6.70;3.17;;;-3274.90;93.90;;;;;;4982644;28;20030;-68
2024/01/08 09:25:07;;;;;;;6.68;2.40;;;-3275.00;93.80;;;;;;5002241;28;20423;-67
2024/01/08 09:27:32;;;;;;;5.53;2.65;;;-3275.00;93.50;;;;;;4999491;28;20096;-68
2024/01/08 09:29:58;;;;;;;4.95;1.90;;;-3275.00;93.50;;;;;;4990348;28;20045;-67
2024/01/08 09:32:24;;;;;;;4.82;2.53;;;-3275.00;92.20;;;;;;5003619;28;20541;-68
2024/01/08 09:34:50;;;;;;;5.00;2.20;;;-3275.00;92.80;;;;;;4997417;28;20084;-68
2024/01/08 09:37:16;;;;;;;5.90;2.50;;;-3274.90;91.80;;;;;;5000002;28;20040;-68
2024/01/08 09:39:42;;;;;;;4.70;2.15;;;-3275.00;91.80;;;;;;5004419;28;20038;-67
2024/01/08 09:42:09;;;;;;;4.97;2.10;;;-3275.10;91.10;;;;;;4977600;28;20389;-67
2024/01/08 09:44:37;;;;;;;4.47;2.10;;;-3275.10;91.20;;;;;;4998645;28;20060;-68
2024/01/08 09:47:04;;;;;;;5.63;1.95;;;-3275.10;91.40;;;;;;4982298;28;20027;-68
2024/01/08 09:49:32;;;;;;;6.13;2.08;;;-3275.30;91.30;;;;;;5005749;28;20025;-68
2024/01/08 09:51:59;;;;;;;4.15;2.05;;;-3275.20;90.90;;;;;;4997845;28;20022;-70
2024/01/08 09:54:26;;;;;;;4.25;2.05;;;-3275.40;91.10;;;;;;4995419;28;20427;-69
2024/01/08 09:56:53;;;;;;;5.80;2.30;;;-3275.40;90.80;;;;;;4987818;28;20098;-67
2024/01/08 09:59:19;;;;;;;4.07;1.83;;;-3275.40;90.40;;;;;;4990702;28;20046;-68
2024/01/08 10:01:45;;;;;;;5.00;2.22;;;-3275.50;90.20;;;;;;4994637;28;20438;-68
2024/01/08 10:04:10;;;;;;;3.33;1.70;;;-3275.50;90.80;;;;;;5000496;28;20087;-67
2024/01/08 10:06:38;;;;;;;4.70;2.00;;;-3275.60;90.60;;;;;;4991054;28;20484;-70
2024/01/08 10:09:04;;;;;;;3.53;1.77;;;-3275.60;90.60;;;;;;4978788;28;20064;-69
2024/01/08 10:11:30;;;;;;;3.97;1.75;;;-3275.60;90.60;;;;;;4994943;28;20053;-68
2024/01/08 10:13:56;;;;;;;2.78;1.50;;;-3275.70;90.50;;;;;;4989851;28;20038;-68
2024/01/08 10:16:25;;;;;;;4.78;2.03;;;-3275.70;90.40;;;;;;4995003;28;20025;-68
2024/01/08 10:18:51;;;;;;;1.80;1.33;;;-3275.70;89.90;;;;;;4987939;28;20117;-68
2024/01/08 10:21:17;;;;;;;2.83;1.30;;;-3275.80;89.90;;;;;;4992325;28;20110;-68
2024/01/08 10:23:43;;;;;;;3.65;1.25;;;-3275.70;89.30;;;;;;4997466;28;20483;-70
2024/01/08 10:26:14;;;;;;;5.60;1.88;;;-3275.70;89.30;;;;;;5000419;28;20037;-68
2024/01/08 10:28:40;;;;;;;3.15;1.52;;;-3275.70;89.40;;;;;;4997803;28;20031;-68
2024/01/08 10:31:07;;;;;;;1.95;1.17;;;-3275.80;89.30;;;;;;5002298;28;20334;-68
2024/01/08 10:33:33;;;;;;;3.30;1.48;;;-3275.90;89.60;;;;;;5001962;28;20117;-67
2024/01/08 10:36:03;;;;;;;3.28;1.45;;;-3276.00;89.00;;;;;;4994774;28;20113;-68
2024/01/08 10:38:31;;;;;;;3.42;1.55;;;-3276.20;89.10;;;;;;4999418;28;20473;-67
2024/01/08 10:40:56;;;;;;;4.28;1.42;;;-3276.40;88.70;;;;;;4990210;28;20070;-68
2024/01/08 10:43:24;;;;;;;4.57;2.05;;;-3276.30;87.50;;;;;;4992842;28;20073;-69
2024/01/08 10:45:57;;;;;;;2.83;1.33;;;-3276.10;87.30;;;;;;4996940;28;20052;-68
2024/01/08 10:48:30;;;;;;;2.85;1.58;;;-3276.10;88.00;;;;;;4999518;28;20129;-69
2024/01/08 10:50:57;;;;;;;3.03;1.15;;;-3276.00;87.90;;;;;;5001008;28;20450;-68
2024/01/08 10:53:44;;;;;;;2.47;1.23;;;-3276.00;88.40;;;;;;4989187;28;20041;-69
2024/01/08 10:56:14;;;;;;;2.20;1.10;;;-3275.90;88.10;;;;;;4982117;28;20490;-68
2024/01/08 10:58:43;;;;;;;;;;;-3276.00;87.30;;;;;;4994159;28;20483;-68
2024/01/08 11:01:09;;;;;;;2.40;1.02;;;-3276.00;87.20;;;;;;4998449;28;19909;-68
2024/01/08 11:03:35;;;;;;;1.92;0.90;;;-3276.10;87.40;;;;;;4991031;28;20038;-68
2024/01/08 11:06:03;;;;;;;2.45;1.02;;;-3276.20;87.80;;;;;;4998657;28;20030;-68
2024/01/08 11:08:31;;;;;;;2.38;1.10;;;-3276.30;87.80;;;;;;4994433;28;20034;-69
2024/01/08 11:11:05;;;;;;;1.83;1.05;;;-3276.20;87.20;;;;;;4997281;28;20049;-67
2024/01/08 11:13:31;;;;;;;2.63;1.10;;;-3276.40;87.60;;;;;;4996949;28;20038;-68
2024/01/08 11:16:02;;;;;;;1.77;1.02;;;-3276.60;87.70;;;;;;4995942;28;20053;-67
2024/01/08 11:18:28;;;;;;;2.08;1.30;;;-3276.70;87.70;;;;;;4996315;28;20092;-68
2024/01/08 11:20:56;;;;;;;2.00;0.73;;;-3276.70;86.90;;;;;;4989442;28;20113;-67
2024/01/08 11:23:41;;;;;;;2.17;0.93;;;0.00;87.20;;;;;;4973134;28;20086;-67
2024/01/08 11:26:21;;;;;;;1.08;0.70;;;-3276.70;86.60;;;;;;4975553;28;20169;-67
2024/01/08 11:29:16;;;;;;;2.63;1.20;;;0.00;87.10;;;;;;4992571;28;20135;-68
2024/01/08 11:31:48;;;;;;;0.73;0.73;;;-3276.70;86.80;;;;;;4955142;28;20125;-67
2024/01/08 11:34:40;;;;;;;1.17;0.73;;;-3276.70;86.90;;;;;;4996174;28;20018;-65
2024/01/08 11:37:27;;;;;;;3.65;1.23;;;-3276.70;86.30;;;;;;4996763;28;20033;-67
2024/01/08 11:39:53;;;;;;;1.50;0.75;;;0.00;86.00;;;;;;4998871;28;20071;-68
2024/01/08 11:42:20;;;;;;;1.35;0.65;;;-3276.70;86.30;;;;;;5002336;28;20026;-67
2024/01/08 11:44:45;;;;;;;1.95;1.10;;;-3276.70;86.30;;;;;;4987533;28;20463;-69
2024/01/08 11:47:11;;;;;;;1.05;0.80;;;-3276.50;85.50;;;;;;4997867;28;20046;-67
2024/01/08 11:49:36;;;;;;;2.10;1.23;;;-3276.60;85.30;;;;;;4997650;28;20042;-68
2024/01/08 11:52:05;;;;;;;1.45;0.70;;;0.00;85.40;;;;;;5002818;28;20395;-68
2024/01/08 11:54:30;;;;;;;1.67;1.00;;;0.10;84.90;;;;;;4995016;28;20074;-67
2024/01/08 11:56:56;;;;;;;1.65;0.77;;;0.10;84.60;;;;;;4993712;28;20060;-72
2024/01/08 11:59:31;;;;;;;0.85;0.60;;;0.10;84.30;;;;;;4996883;28;20037;-67
2024/01/08 12:02:29;;;;;;;2.55;1.02;;;0.10;84.70;;;;;;4998883;28;20052;-71
2024/01/08 12:04:58;;;;;;;1.15;0.52;;;0.10;84.30;;;;;;4993749;28;20049;-70
2024/01/08 12:07:29;;;;;;;1.13;0.50;;;0.10;84.00;;;;;;4998296;28;20023;-71
2024/01/08 12:09:55;;;;;;;0.63;0.63;;;0.30;84.30;;;;;;4996708;28;20022;-72
2024/01/08 12:12:24;;;;;;;1.55;0.77;;;0.30;83.40;;;;;;4996984;28;20564;-63
2024/01/08 12:14:51;;;;;;;2.70;0.70;;;0.50;83.30;;;;;;5000459;28;20022;-66